sensor_id;sensor_type;location;lat;lon;timestamp;P1;durP1;ratioP1;P2;durP2;ratioP2
13028;SDS011;6581;42.662;23.402;2024-03-07T00:00:04;21.52;;;11.65;;
13028;SDS011;6581;42.662;23.402;2024-03-07T00:02:48;20.48;;;10.93;;
13028;SDS011;6581;42.662;23.402;2024-03-07T00:05:18;20.70;;;11.60;;
13028;SDS011;6581;42.662;23.402;2024-03-07T00:07:45;21.38;;;11.40;;
13028;SDS011;6581;42.662;23.402;2024-03-07T00:10:11;21.88;;;11.20;;
13028;SDS011;6581;42.662;23.402;2024-03-07T00:12:37;18.50;;;10.68;;
13028;SDS011;6581;42.662;23.402;2024-03-07T00:15:09;20.58;;;11.50;;
13028;SDS011;6581;42.662;23.402;2024-03-07T00:17:39;19.67;;;11.02;;
13028;SDS011;6581;42.662;23.402;2024-03-07T00:20:04;23.17;;;11.75;;
13028;SDS011;6581;42.662;23.402;2024-03-07T00:22:37;21.98;;;10.77;;
13028;SDS011;6581;42.662;23.402;2024-03-07T00:25:03;19.02;;;10.50;;
13028;SDS011;6581;42.662;23.402;2024-03-07T00:27:32;20.58;;;11.10;;
13028;SDS011;6581;42.662;23.402;2024-03-07T00:29:58;22.25;;;11.48;;
13028;SDS011;6581;42.662;23.402;2024-03-07T00:32:24;17.92;;;10.63;;
13028;SDS011;6581;42.662;23.402;2024-03-07T00:34:52;19.67;;;10.05;;
13028;SDS011;6581;42.662;23.402;2024-03-07T00:37:17;18.48;;;10.73;;
13028;SDS011;6581;42.662;23.402;2024-03-07T00:39:43;22.00;;;10.80;;
13028;SDS011;6581;42.662;23.402;2024-03-07T00:42:08;21.13;;;11.95;;
13028;SDS011;6581;42.662;23.402;2024-03-07T00:44:34;20.10;;;11.35;;
13028;SDS011;6581;42.662;23.402;2024-03-07T00:47:00;21.25;;;11.68;;
13028;SDS011;6581;42.662;23.402;2024-03-07T00:49:29;19.50;;;11.25;;
13028;SDS011;6581;42.662;23.402;2024-03-07T00:51:56;23.38;;;11.77;;
13028;SDS011;6581;42.662;23.402;2024-03-07T00:54:23;20.77;;;11.38;;
13028;SDS011;6581;42.662;23.402;2024-03-07T00:56:48;21.77;;;11.75;;
13028;SDS011;6581;42.662;23.402;2024-03-07T00:59:16;26.73;;;12.60;;
13028;SDS011;6581;42.662;23.402;2024-03-07T01:01:42;22.17;;;12.02;;
13028;SDS011;6581;42.662;23.402;2024-03-07T01:04:08;19.30;;;10.70;;
13028;SDS011;6581;42.662;23.402;2024-03-07T01:06:34;19.85;;;10.52;;
13028;SDS011;6581;42.662;23.402;2024-03-07T01:09:01;19.75;;;11.65;;
13028;SDS011;6581;42.662;23.402;2024-03-07T01:11:27;20.98;;;10.60;;
13028;SDS011;6581;42.662;23.402;2024-03-07T01:13:53;20.05;;;10.73;;
13028;SDS011;6581;42.662;23.402;2024-03-07T01:16:19;19.25;;;9.82;;
13028;SDS011;6581;42.662;23.402;2024-03-07T01:18:44;18.20;;;10.15;;
13028;SDS011;6581;42.662;23.402;2024-03-07T01:21:10;20.88;;;11.07;;
13028;SDS011;6581;42.662;23.402;2024-03-07T01:23:36;18.48;;;10.25;;
13028;SDS011;6581;42.662;23.402;2024-03-07T01:26:01;21.10;;;10.55;;
13028;SDS011;6581;42.662;23.402;2024-03-07T01:28:28;20.55;;;10.60;;
13028;SDS011;6581;42.662;23.402;2024-03-07T01:30:56;18.52;;;10.30;;
13028;SDS011;6581;42.662;23.402;2024-03-07T01:33:23;21.60;;;10.77;;
13028;SDS011;6581;42.662;23.402;2024-03-07T01:35:49;21.42;;;11.02;;
13028;SDS011;6581;42.662;23.402;2024-03-07T01:38:15;21.13;;;10.98;;
13028;SDS011;6581;42.662;23.402;2024-03-07T01:40:41;20.58;;;11.32;;
13028;SDS011;6581;42.662;23.402;2024-03-07T01:43:08;18.17;;;10.82;;
13028;SDS011;6581;42.662;23.402;2024-03-07T01:45:35;19.42;;;9.35;;
13028;SDS011;6581;42.662;23.402;2024-03-07T01:48:02;21.20;;;10.13;;
13028;SDS011;6581;42.662;23.402;2024-03-07T01:50:32;19.17;;;10.45;;
13028;SDS011;6581;42.662;23.402;2024-03-07T01:52:59;19.88;;;10.32;;
13028;SDS011;6581;42.662;23.402;2024-03-07T01:55:26;24.05;;;11.23;;
13028;SDS011;6581;42.662;23.402;2024-03-07T01:57:52;22.98;;;9.60;;
13028;SDS011;6581;42.662;23.402;2024-03-07T02:00:21;18.02;;;9.30;;
13028;SDS011;6581;42.662;23.402;2024-03-07T02:02:47;16.95;;;9.00;;
13028;SDS011;6581;42.662;23.402;2024-03-07T02:05:13;17.50;;;8.73;;
13028;SDS011;6581;42.662;23.402;2024-03-07T02:07:38;17.10;;;9.50;;
13028;SDS011;6581;42.662;23.402;2024-03-07T02:10:04;14.57;;;7.07;;
13028;SDS011;6581;42.662;23.402;2024-03-07T02:12:30;17.77;;;9.48;;
13028;SDS011;6581;42.662;23.402;2024-03-07T02:14:56;17.80;;;8.98;;
13028;SDS011;6581;42.662;23.402;2024-03-07T02:17:23;21.02;;;9.32;;
13028;SDS011;6581;42.662;23.402;2024-03-07T02:19:50;20.52;;;9.02;;
13028;SDS011;6581;42.662;23.402;2024-03-07T02:22:16;18.55;;;7.18;;
13028;SDS011;6581;42.662;23.402;2024-03-07T02:24:42;13.05;;;7.22;;
13028;SDS011;6581;42.662;23.402;2024-03-07T02:27:07;20.27;;;6.63;;
13028;SDS011;6581;42.662;23.402;2024-03-07T02:29:34;10.68;;;5.03;;
13028;SDS011;6581;42.662;23.402;2024-03-07T02:32:01;9.57;;;4.55;;
13028;SDS011;6581;42.662;23.402;2024-03-07T02:34:27;7.05;;;3.92;;
13028;SDS011;6581;42.662;23.402;2024-03-07T02:36:52;7.70;;;3.70;;
13028;SDS011;6581;42.662;23.402;2024-03-07T02:39:18;6.25;;;3.03;;
13028;SDS011;6581;42.662;23.402;2024-03-07T02:41:43;6.90;;;3.28;;
13028;SDS011;6581;42.662;23.402;2024-03-07T02:44:09;6.45;;;3.42;;
13028;SDS011;6581;42.662;23.402;2024-03-07T02:46:34;7.63;;;2.55;;
13028;SDS011;6581;42.662;23.402;2024-03-07T02:48:59;5.63;;;2.60;;
13028;SDS011;6581;42.662;23.402;2024-03-07T02:51:25;5.55;;;3.08;;
13028;SDS011;6581;42.662;23.402;2024-03-07T02:53:51;4.70;;;2.70;;
13028;SDS011;6581;42.662;23.402;2024-03-07T02:56:16;4.30;;;2.03;;
13028;SDS011;6581;42.662;23.402;2024-03-07T02:58:42;4.78;;;2.38;;
13028;SDS011;6581;42.662;23.402;2024-03-07T03:01:07;2.78;;;1.60;;
13028;SDS011;6581;42.662;23.402;2024-03-07T03:03:33;2.80;;;1.83;;
13028;SDS011;6581;42.662;23.402;2024-03-07T03:05:58;4.00;;;2.03;;
13028;SDS011;6581;42.662;23.402;2024-03-07T03:08:24;3.15;;;1.45;;
13028;SDS011;6581;42.662;23.402;2024-03-07T03:10:50;3.63;;;1.80;;
13028;SDS011;6581;42.662;23.402;2024-03-07T03:13:18;3.75;;;1.50;;
13028;SDS011;6581;42.662;23.402;2024-03-07T03:15:44;4.35;;;1.65;;
13028;SDS011;6581;42.662;23.402;2024-03-07T03:18:10;2.90;;;1.65;;
13028;SDS011;6581;42.662;23.402;2024-03-07T03:20:37;2.83;;;1.25;;
13028;SDS011;6581;42.662;23.402;2024-03-07T03:23:04;1.45;;;0.65;;
13028;SDS011;6581;42.662;23.402;2024-03-07T03:25:31;1.73;;;0.52;;
13028;SDS011;6581;42.662;23.402;2024-03-07T03:30:29;1.83;;;0.47;;
13028;SDS011;6581;42.662;23.402;2024-03-07T03:32:55;1.70;;;0.80;;
13028;SDS011;6581;42.662;23.402;2024-03-07T03:35:20;1.00;;;0.45;;
13028;SDS011;6581;42.662;23.402;2024-03-07T03:37:46;2.17;;;0.70;;
13028;SDS011;6581;42.662;23.402;2024-03-07T03:40:12;1.10;;;0.60;;
13028;SDS011;6581;42.662;23.402;2024-03-07T03:42:41;0.80;;;0.40;;
13028;SDS011;6581;42.662;23.402;2024-03-07T03:45:08;1.55;;;0.50;;
13028;SDS011;6581;42.662;23.402;2024-03-07T03:47:34;1.02;;;0.60;;
13028;SDS011;6581;42.662;23.402;2024-03-07T03:50:04;1.20;;;0.70;;
13028;SDS011;6581;42.662;23.402;2024-03-07T03:52:31;2.22;;;0.50;;
13028;SDS011;6581;42.662;23.402;2024-03-07T03:54:58;1.00;;;0.40;;
13028;SDS011;6581;42.662;23.402;2024-03-07T03:57:24;1.17;;;0.63;;
13028;SDS011;6581;42.662;23.402;2024-03-07T03:59:51;1.45;;;0.60;;
13028;SDS011;6581;42.662;23.402;2024-03-07T04:02:17;1.13;;;0.40;;
13028;SDS011;6581;42.662;23.402;2024-03-07T04:04:42;1.48;;;0.60;;
13028;SDS011;6581;42.662;23.402;2024-03-07T04:07:10;1.70;;;0.82;;
13028;SDS011;6581;42.662;23.402;2024-03-07T04:09:37;2.22;;;0.85;;
13028;SDS011;6581;42.662;23.402;2024-03-07T04:12:03;2.15;;;0.82;;
13028;SDS011;6581;42.662;23.402;2024-03-07T04:14:28;2.55;;;1.20;;
13028;SDS011;6581;42.662;23.402;2024-03-07T04:16:58;2.60;;;1.10;;
13028;SDS011;6581;42.662;23.402;2024-03-07T04:19:23;2.05;;;1.08;;
13028;SDS011;6581;42.662;23.402;2024-03-07T04:21:49;2.70;;;0.90;;
13028;SDS011;6581;42.662;23.402;2024-03-07T04:24:14;2.65;;;1.05;;
13028;SDS011;6581;42.662;23.402;2024-03-07T04:26:40;1.63;;;0.80;;
13028;SDS011;6581;42.662;23.402;2024-03-07T04:29:08;1.95;;;1.05;;
13028;SDS011;6581;42.662;23.402;2024-03-07T04:31:34;2.05;;;1.00;;
13028;SDS011;6581;42.662;23.402;2024-03-07T04:34:00;2.60;;;1.33;;
13028;SDS011;6581;42.662;23.402;2024-03-07T04:36:25;3.42;;;1.75;;
13028;SDS011;6581;42.662;23.402;2024-03-07T04:38:51;3.22;;;1.55;;
13028;SDS011;6581;42.662;23.402;2024-03-07T04:41:17;3.50;;;1.42;;
13028;SDS011;6581;42.662;23.402;2024-03-07T04:43:43;5.78;;;1.90;;
13028;SDS011;6581;42.662;23.402;2024-03-07T04:46:09;2.85;;;1.35;;
13028;SDS011;6581;42.662;23.402;2024-03-07T04:48:35;4.72;;;2.30;;
13028;SDS011;6581;42.662;23.402;2024-03-07T04:51:00;4.30;;;2.30;;
13028;SDS011;6581;42.662;23.402;2024-03-07T04:53:26;3.97;;;2.25;;
13028;SDS011;6581;42.662;23.402;2024-03-07T04:55:51;4.65;;;2.28;;
13028;SDS011;6581;42.662;23.402;2024-03-07T04:58:17;6.82;;;2.30;;
13028;SDS011;6581;42.662;23.402;2024-03-07T05:00:43;4.63;;;2.50;;
13028;SDS011;6581;42.662;23.402;2024-03-07T05:03:09;5.43;;;2.60;;
13028;SDS011;6581;42.662;23.402;2024-03-07T05:05:34;5.60;;;2.78;;
13028;SDS011;6581;42.662;23.402;2024-03-07T05:08:00;5.88;;;3.17;;
13028;SDS011;6581;42.662;23.402;2024-03-07T05:10:25;4.75;;;2.58;;
13028;SDS011;6581;42.662;23.402;2024-03-07T05:12:54;4.25;;;2.50;;
13028;SDS011;6581;42.662;23.402;2024-03-07T05:15:20;5.78;;;2.92;;
13028;SDS011;6581;42.662;23.402;2024-03-07T05:17:45;6.72;;;3.70;;
13028;SDS011;6581;42.662;23.402;2024-03-07T05:20:11;5.10;;;2.50;;
13028;SDS011;6581;42.662;23.402;2024-03-07T05:22:40;3.47;;;1.95;;
13028;SDS011;6581;42.662;23.402;2024-03-07T05:25:09;3.85;;;1.40;;
13028;SDS011;6581;42.662;23.402;2024-03-07T05:27:35;3.85;;;2.22;;
13028;SDS011;6581;42.662;23.402;2024-03-07T05:30:02;5.40;;;1.70;;
13028;SDS011;6581;42.662;23.402;2024-03-07T05:32:28;2.78;;;1.92;;
13028;SDS011;6581;42.662;23.402;2024-03-07T05:34:54;3.15;;;1.80;;
13028;SDS011;6581;42.662;23.402;2024-03-07T05:37:20;4.13;;;1.80;;
13028;SDS011;6581;42.662;23.402;2024-03-07T05:39:47;3.83;;;2.10;;
13028;SDS011;6581;42.662;23.402;2024-03-07T05:42:13;3.50;;;1.80;;
13028;SDS011;6581;42.662;23.402;2024-03-07T05:44:40;4.80;;;2.45;;
13028;SDS011;6581;42.662;23.402;2024-03-07T05:47:09;5.47;;;2.65;;
13028;SDS011;6581;42.662;23.402;2024-03-07T05:49:35;6.75;;;2.25;;
13028;SDS011;6581;42.662;23.402;2024-03-07T05:52:02;5.70;;;2.78;;
13028;SDS011;6581;42.662;23.402;2024-03-07T05:54:28;6.32;;;3.08;;
13028;SDS011;6581;42.662;23.402;2024-03-07T05:56:56;5.45;;;3.00;;
13028;SDS011;6581;42.662;23.402;2024-03-07T05:59:22;5.97;;;2.75;;
13028;SDS011;6581;42.662;23.402;2024-03-07T06:01:48;7.13;;;3.72;;
13028;SDS011;6581;42.662;23.402;2024-03-07T06:04:15;7.88;;;4.00;;
13028;SDS011;6581;42.662;23.402;2024-03-07T06:06:40;7.15;;;4.35;;
13028;SDS011;6581;42.662;23.402;2024-03-07T06:09:07;7.57;;;3.17;;
13028;SDS011;6581;42.662;23.402;2024-03-07T06:11:35;5.07;;;2.65;;
13028;SDS011;6581;42.662;23.402;2024-03-07T06:14:02;7.65;;;3.42;;
13028;SDS011;6581;42.662;23.402;2024-03-07T06:16:38;5.97;;;3.35;;
13028;SDS011;6581;42.662;23.402;2024-03-07T06:19:04;6.50;;;2.90;;
13028;SDS011;6581;42.662;23.402;2024-03-07T06:21:33;6.68;;;3.50;;
13028;SDS011;6581;42.662;23.402;2024-03-07T06:24:00;5.43;;;2.90;;
13028;SDS011;6581;42.662;23.402;2024-03-07T06:26:31;8.07;;;3.17;;
13028;SDS011;6581;42.662;23.402;2024-03-07T06:29:10;6.72;;;2.95;;
13028;SDS011;6581;42.662;23.402;2024-03-07T06:31:41;5.22;;;2.88;;
13028;SDS011;6581;42.662;23.402;2024-03-07T06:34:07;6.20;;;3.08;;
13028;SDS011;6581;42.662;23.402;2024-03-07T06:36:33;5.80;;;3.08;;
13028;SDS011;6581;42.662;23.402;2024-03-07T06:38:59;7.10;;;3.08;;
13028;SDS011;6581;42.662;23.402;2024-03-07T06:41:25;6.68;;;3.28;;
13028;SDS011;6581;42.662;23.402;2024-03-07T06:43:50;6.15;;;2.72;;
13028;SDS011;6581;42.662;23.402;2024-03-07T06:46:18;4.55;;;2.55;;
13028;SDS011;6581;42.662;23.402;2024-03-07T06:48:45;4.60;;;3.00;;
13028;SDS011;6581;42.662;23.402;2024-03-07T06:51:10;6.53;;;3.13;;
13028;SDS011;6581;42.662;23.402;2024-03-07T06:53:36;3.30;;;1.92;;
13028;SDS011;6581;42.662;23.402;2024-03-07T06:56:02;4.80;;;2.33;;
13028;SDS011;6581;42.662;23.402;2024-03-07T06:58:28;5.85;;;2.88;;
13028;SDS011;6581;42.662;23.402;2024-03-07T07:00:54;7.20;;;3.30;;
13028;SDS011;6581;42.662;23.402;2024-03-07T07:03:22;5.45;;;2.50;;
13028;SDS011;6581;42.662;23.402;2024-03-07T07:05:49;3.63;;;2.15;;
13028;SDS011;6581;42.662;23.402;2024-03-07T07:08:15;6.45;;;2.63;;
13028;SDS011;6581;42.662;23.402;2024-03-07T07:10:41;3.90;;;1.92;;
13028;SDS011;6581;42.662;23.402;2024-03-07T07:13:07;5.20;;;3.08;;
13028;SDS011;6581;42.662;23.402;2024-03-07T07:15:34;6.15;;;3.47;;
13028;SDS011;6581;42.662;23.402;2024-03-07T07:18:01;7.13;;;3.17;;
13028;SDS011;6581;42.662;23.402;2024-03-07T07:20:28;5.68;;;3.08;;
13028;SDS011;6581;42.662;23.402;2024-03-07T07:22:53;11.20;;;4.72;;
13028;SDS011;6581;42.662;23.402;2024-03-07T07:25:19;8.30;;;4.05;;
13028;SDS011;6581;42.662;23.402;2024-03-07T07:30:14;7.30;;;4.32;;
13028;SDS011;6581;42.662;23.402;2024-03-07T07:32:40;5.72;;;2.85;;
13028;SDS011;6581;42.662;23.402;2024-03-07T07:35:08;5.85;;;2.70;;
13028;SDS011;6581;42.662;23.402;2024-03-07T07:37:38;3.78;;;1.80;;
13028;SDS011;6581;42.662;23.402;2024-03-07T07:40:05;7.85;;;3.28;;
13028;SDS011;6581;42.662;23.402;2024-03-07T07:42:37;9.23;;;4.30;;
13028;SDS011;6581;42.662;23.402;2024-03-07T07:45:06;4.15;;;2.03;;
13028;SDS011;6581;42.662;23.402;2024-03-07T07:47:36;5.15;;;2.50;;
13028;SDS011;6581;42.662;23.402;2024-03-07T07:50:06;3.78;;;1.95;;
13028;SDS011;6581;42.662;23.402;2024-03-07T07:52:39;3.78;;;2.13;;
13028;SDS011;6581;42.662;23.402;2024-03-07T07:55:18;4.90;;;2.58;;
13028;SDS011;6581;42.662;23.402;2024-03-07T07:57:49;5.05;;;2.50;;
13028;SDS011;6581;42.662;23.402;2024-03-07T08:00:18;5.97;;;2.50;;
13028;SDS011;6581;42.662;23.402;2024-03-07T08:02:52;3.38;;;1.73;;
13028;SDS011;6581;42.662;23.402;2024-03-07T08:05:22;2.30;;;1.35;;
13028;SDS011;6581;42.662;23.402;2024-03-07T08:07:53;5.38;;;2.72;;
13028;SDS011;6581;42.662;23.402;2024-03-07T08:10:23;3.60;;;1.73;;
13028;SDS011;6581;42.662;23.402;2024-03-07T08:12:50;3.17;;;1.55;;
13028;SDS011;6581;42.662;23.402;2024-03-07T08:15:16;3.60;;;1.60;;
13028;SDS011;6581;42.662;23.402;2024-03-07T08:17:42;2.15;;;1.00;;
13028;SDS011;6581;42.662;23.402;2024-03-07T08:20:12;2.40;;;1.20;;
13028;SDS011;6581;42.662;23.402;2024-03-07T08:22:43;3.75;;;1.70;;
13028;SDS011;6581;42.662;23.402;2024-03-07T08:25:10;7.15;;;2.47;;
13028;SDS011;6581;42.662;23.402;2024-03-07T08:27:41;3.60;;;1.67;;
13028;SDS011;6581;42.662;23.402;2024-03-07T08:30:08;2.55;;;1.00;;
13028;SDS011;6581;42.662;23.402;2024-03-07T08:32:41;2.20;;;1.30;;
13028;SDS011;6581;42.662;23.402;2024-03-07T08:35:08;2.33;;;1.17;;
13028;SDS011;6581;42.662;23.402;2024-03-07T08:37:38;1.95;;;1.05;;
13028;SDS011;6581;42.662;23.402;2024-03-07T08:40:04;3.63;;;1.75;;
13028;SDS011;6581;42.662;23.402;2024-03-07T08:42:35;2.20;;;1.25;;
13028;SDS011;6581;42.662;23.402;2024-03-07T08:45:02;4.45;;;2.35;;
13028;SDS011;6581;42.662;23.402;2024-03-07T08:47:32;5.35;;;3.13;;
13028;SDS011;6581;42.662;23.402;2024-03-07T08:49:58;5.68;;;2.30;;
13028;SDS011;6581;42.662;23.402;2024-03-07T08:52:24;5.68;;;1.70;;
13028;SDS011;6581;42.662;23.402;2024-03-07T08:54:50;2.65;;;1.63;;
13028;SDS011;6581;42.662;23.402;2024-03-07T08:57:15;4.05;;;1.75;;
13028;SDS011;6581;42.662;23.402;2024-03-07T08:59:44;3.72;;;1.77;;
13028;SDS011;6581;42.662;23.402;2024-03-07T09:02:11;2.90;;;1.67;;
13028;SDS011;6581;42.662;23.402;2024-03-07T09:04:37;4.20;;;2.28;;
13028;SDS011;6581;42.662;23.402;2024-03-07T09:07:03;5.45;;;2.88;;
13028;SDS011;6581;42.662;23.402;2024-03-07T09:09:30;10.50;;;4.82;;
13028;SDS011;6581;42.662;23.402;2024-03-07T09:11:55;3.75;;;2.05;;
13028;SDS011;6581;42.662;23.402;2024-03-07T09:14:21;5.07;;;2.47;;
13028;SDS011;6581;42.662;23.402;2024-03-07T09:16:47;3.63;;;2.15;;
13028;SDS011;6581;42.662;23.402;2024-03-07T09:19:13;3.45;;;2.10;;
13028;SDS011;6581;42.662;23.402;2024-03-07T09:21:44;3.38;;;1.60;;
13028;SDS011;6581;42.662;23.402;2024-03-07T09:24:11;3.17;;;1.80;;
13028;SDS011;6581;42.662;23.402;2024-03-07T09:26:37;3.65;;;1.98;;
13028;SDS011;6581;42.662;23.402;2024-03-07T09:29:02;4.97;;;2.33;;
13028;SDS011;6581;42.662;23.402;2024-03-07T09:31:34;3.58;;;1.83;;
13028;SDS011;6581;42.662;23.402;2024-03-07T09:33:59;3.80;;;1.83;;
13028;SDS011;6581;42.662;23.402;2024-03-07T09:36:25;3.58;;;2.03;;
13028;SDS011;6581;42.662;23.402;2024-03-07T09:38:51;8.88;;;2.38;;
13028;SDS011;6581;42.662;23.402;2024-03-07T09:41:16;3.50;;;1.75;;
13028;SDS011;6581;42.662;23.402;2024-03-07T09:43:46;3.45;;;2.13;;
13028;SDS011;6581;42.662;23.402;2024-03-07T09:46:13;4.45;;;2.08;;
13028;SDS011;6581;42.662;23.402;2024-03-07T09:48:39;3.08;;;1.83;;
13028;SDS011;6581;42.662;23.402;2024-03-07T09:51:06;3.50;;;1.65;;
13028;SDS011;6581;42.662;23.402;2024-03-07T09:53:35;7.18;;;2.85;;
13028;SDS011;6581;42.662;23.402;2024-03-07T09:56:03;4.40;;;2.05;;
13028;SDS011;6581;42.662;23.402;2024-03-07T09:58:31;3.92;;;2.60;;
13028;SDS011;6581;42.662;23.402;2024-03-07T10:00:59;3.30;;;1.92;;
13028;SDS011;6581;42.662;23.402;2024-03-07T10:03:29;5.65;;;2.67;;
13028;SDS011;6581;42.662;23.402;2024-03-07T10:05:55;5.00;;;2.17;;
13028;SDS011;6581;42.662;23.402;2024-03-07T10:08:21;4.97;;;2.15;;
13028;SDS011;6581;42.662;23.402;2024-03-07T10:10:49;3.17;;;1.67;;
13028;SDS011;6581;42.662;23.402;2024-03-07T10:13:15;3.03;;;1.80;;
13028;SDS011;6581;42.662;23.402;2024-03-07T10:15:42;4.03;;;1.60;;
13028;SDS011;6581;42.662;23.402;2024-03-07T10:18:08;2.90;;;1.65;;
13028;SDS011;6581;42.662;23.402;2024-03-07T10:20:38;3.05;;;1.40;;
13028;SDS011;6581;42.662;23.402;2024-03-07T10:23:05;4.35;;;2.20;;
13028;SDS011;6581;42.662;23.402;2024-03-07T10:25:32;4.82;;;1.80;;
13028;SDS011;6581;42.662;23.402;2024-03-07T10:27:59;3.33;;;1.60;;
13028;SDS011;6581;42.662;23.402;2024-03-07T10:30:26;3.67;;;2.10;;
13028;SDS011;6581;42.662;23.402;2024-03-07T10:32:58;2.72;;;1.80;;
13028;SDS011;6581;42.662;23.402;2024-03-07T10:35:24;3.45;;;2.00;;
13028;SDS011;6581;42.662;23.402;2024-03-07T10:37:52;5.55;;;2.20;;
13028;SDS011;6581;42.662;23.402;2024-03-07T10:40:19;3.80;;;1.77;;
13028;SDS011;6581;42.662;23.402;2024-03-07T10:42:47;3.90;;;2.50;;
13028;SDS011;6581;42.662;23.402;2024-03-07T10:45:17;6.30;;;2.22;;
13028;SDS011;6581;42.662;23.402;2024-03-07T10:47:47;3.28;;;2.00;;
13028;SDS011;6581;42.662;23.402;2024-03-07T10:58:37;5.05;;;3.08;;
13028;SDS011;6581;42.662;23.402;2024-03-07T11:01:07;3.70;;;1.58;;
13028;SDS011;6581;42.662;23.402;2024-03-07T11:03:36;3.30;;;1.65;;
13028;SDS011;6581;42.662;23.402;2024-03-07T11:06:02;3.22;;;1.77;;
13028;SDS011;6581;42.662;23.402;2024-03-07T11:08:34;3.42;;;2.40;;
13028;SDS011;6581;42.662;23.402;2024-03-07T11:11:01;4.07;;;2.25;;
13028;SDS011;6581;42.662;23.402;2024-03-07T11:13:27;5.80;;;2.60;;
13028;SDS011;6581;42.662;23.402;2024-03-07T11:15:55;4.68;;;2.80;;
13028;SDS011;6581;42.662;23.402;2024-03-07T11:18:23;4.63;;;2.83;;
13028;SDS011;6581;42.662;23.402;2024-03-07T11:20:52;6.25;;;2.92;;
13028;SDS011;6581;42.662;23.402;2024-03-07T11:26:07;8.15;;;3.58;;
13028;SDS011;6581;42.662;23.402;2024-03-07T11:28:37;4.63;;;2.45;;
13028;SDS011;6581;42.662;23.402;2024-03-07T11:31:13;5.97;;;2.97;;
13028;SDS011;6581;42.662;23.402;2024-03-07T11:33:43;7.07;;;3.13;;
13028;SDS011;6581;42.662;23.402;2024-03-07T11:36:43;5.20;;;2.55;;
13028;SDS011;6581;42.662;23.402;2024-03-07T11:42:31;7.00;;;3.28;;
13028;SDS011;6581;42.662;23.402;2024-03-07T11:44:59;6.70;;;3.28;;
13028;SDS011;6581;42.662;23.402;2024-03-07T11:47:34;8.68;;;3.85;;
13028;SDS011;6581;42.662;23.402;2024-03-07T11:50:03;4.10;;;2.50;;
13028;SDS011;6581;42.662;23.402;2024-03-07T11:52:36;5.65;;;3.33;;
13028;SDS011;6581;42.662;23.402;2024-03-07T11:55:09;6.53;;;3.90;;
13028;SDS011;6581;42.662;23.402;2024-03-07T11:57:36;6.75;;;3.00;;
13028;SDS011;6581;42.662;23.402;2024-03-07T12:00:03;7.10;;;3.25;;
13028;SDS011;6581;42.662;23.402;2024-03-07T12:02:36;11.63;;;3.30;;
13028;SDS011;6581;42.662;23.402;2024-03-07T12:05:03;5.45;;;2.75;;
13028;SDS011;6581;42.662;23.402;2024-03-07T12:07:32;5.88;;;3.33;;
13028;SDS011;6581;42.662;23.402;2024-03-07T12:09:58;8.25;;;3.72;;
13028;SDS011;6581;42.662;23.402;2024-03-07T12:12:25;8.55;;;3.28;;
13028;SDS011;6581;42.662;23.402;2024-03-07T12:14:53;5.18;;;2.95;;
13028;SDS011;6581;42.662;23.402;2024-03-07T12:17:19;6.00;;;2.97;;
13028;SDS011;6581;42.662;23.402;2024-03-07T12:19:46;5.60;;;2.67;;
13028;SDS011;6581;42.662;23.402;2024-03-07T12:22:12;5.55;;;3.05;;
13028;SDS011;6581;42.662;23.402;2024-03-07T12:24:41;5.43;;;3.22;;
13028;SDS011;6581;42.662;23.402;2024-03-07T12:27:14;6.53;;;4.20;;
13028;SDS011;6581;42.662;23.402;2024-03-07T12:29:41;8.82;;;4.20;;
13028;SDS011;6581;42.662;23.402;2024-03-07T12:32:08;11.23;;;4.97;;
13028;SDS011;6581;42.662;23.402;2024-03-07T12:34:39;11.65;;;5.43;;
13028;SDS011;6581;42.662;23.402;2024-03-07T12:37:11;8.13;;;3.72;;
13028;SDS011;6581;42.662;23.402;2024-03-07T12:39:41;10.75;;;6.53;;
13028;SDS011;6581;42.662;23.402;2024-03-07T12:42:13;12.48;;;6.93;;
13028;SDS011;6581;42.662;23.402;2024-03-07T12:44:42;8.23;;;4.70;;
13028;SDS011;6581;42.662;23.402;2024-03-07T12:47:10;8.60;;;4.53;;
13028;SDS011;6581;42.662;23.402;2024-03-07T12:49:35;10.20;;;5.70;;
13028;SDS011;6581;42.662;23.402;2024-03-07T12:52:01;8.70;;;5.18;;
13028;SDS011;6581;42.662;23.402;2024-03-07T12:54:27;8.52;;;4.55;;
13028;SDS011;6581;42.662;23.402;2024-03-07T12:56:53;9.73;;;4.85;;
13028;SDS011;6581;42.662;23.402;2024-03-07T12:59:18;7.75;;;4.43;;
13028;SDS011;6581;42.662;23.402;2024-03-07T13:01:48;11.38;;;4.32;;
13028;SDS011;6581;42.662;23.402;2024-03-07T13:04:14;6.22;;;3.42;;
13028;SDS011;6581;42.662;23.402;2024-03-07T13:06:41;9.05;;;4.97;;
13028;SDS011;6581;42.662;23.402;2024-03-07T13:09:11;7.32;;;4.50;;
13028;SDS011;6581;42.662;23.402;2024-03-07T13:11:40;11.50;;;4.07;;
13028;SDS011;6581;42.662;23.402;2024-03-07T13:14:12;4.88;;;2.90;;
13028;SDS011;6581;42.662;23.402;2024-03-07T13:16:39;11.52;;;4.32;;
13028;SDS011;6581;42.662;23.402;2024-03-07T13:19:04;5.18;;;3.03;;
13028;SDS011;6581;42.662;23.402;2024-03-07T13:21:30;6.30;;;3.28;;
13028;SDS011;6581;42.662;23.402;2024-03-07T13:23:57;10.10;;;3.75;;
13028;SDS011;6581;42.662;23.402;2024-03-07T13:26:23;5.55;;;2.83;;
13028;SDS011;6581;42.662;23.402;2024-03-07T13:28:51;4.20;;;2.72;;
13028;SDS011;6581;42.662;23.402;2024-03-07T13:31:18;8.05;;;4.13;;
13028;SDS011;6581;42.662;23.402;2024-03-07T13:33:44;9.30;;;3.10;;
13028;SDS011;6581;42.662;23.402;2024-03-07T13:36:10;6.32;;;3.10;;
13028;SDS011;6581;42.662;23.402;2024-03-07T13:38:36;7.30;;;4.15;;
13028;SDS011;6581;42.662;23.402;2024-03-07T13:41:03;6.75;;;2.80;;
13028;SDS011;6581;42.662;23.402;2024-03-07T13:43:29;6.78;;;3.47;;
13028;SDS011;6581;42.662;23.402;2024-03-07T13:45:55;7.57;;;3.30;;
13028;SDS011;6581;42.662;23.402;2024-03-07T13:48:21;10.10;;;4.80;;
13028;SDS011;6581;42.662;23.402;2024-03-07T13:50:47;7.38;;;4.47;;
13028;SDS011;6581;42.662;23.402;2024-03-07T13:53:18;7.72;;;4.28;;
13028;SDS011;6581;42.662;23.402;2024-03-07T13:55:58;10.40;;;4.20;;
13028;SDS011;6581;42.662;23.402;2024-03-07T13:58:40;9.18;;;3.92;;
13028;SDS011;6581;42.662;23.402;2024-03-07T14:19:04;9.52;;;4.22;;
13028;SDS011;6581;42.662;23.402;2024-03-07T14:22:02;9.65;;;4.72;;
13028;SDS011;6581;42.662;23.402;2024-03-07T14:27:49;10.43;;;4.97;;
13028;SDS011;6581;42.662;23.402;2024-03-07T14:33:16;10.25;;;5.03;;
13028;SDS011;6581;42.662;23.402;2024-03-07T14:36:00;8.70;;;4.72;;
13028;SDS011;6581;42.662;23.402;2024-03-07T14:38:57;12.52;;;5.47;;
13028;SDS011;6581;42.662;23.402;2024-03-07T14:44:15;11.27;;;5.55;;
13028;SDS011;6581;42.662;23.402;2024-03-07T14:46:42;18.73;;;6.20;;
13028;SDS011;6581;42.662;23.402;2024-03-07T14:49:10;11.25;;;6.03;;
13028;SDS011;6581;42.662;23.402;2024-03-07T14:51:40;15.48;;;5.53;;
13028;SDS011;6581;42.662;23.402;2024-03-07T14:54:06;14.05;;;5.47;;
13028;SDS011;6581;42.662;23.402;2024-03-07T14:56:33;11.23;;;5.60;;
13028;SDS011;6581;42.662;23.402;2024-03-07T14:58:59;14.52;;;5.95;;
13028;SDS011;6581;42.662;23.402;2024-03-07T15:01:26;11.48;;;5.78;;
13028;SDS011;6581;42.662;23.402;2024-03-07T15:03:52;12.80;;;5.30;;
13028;SDS011;6581;42.662;23.402;2024-03-07T15:06:18;12.57;;;6.13;;
13028;SDS011;6581;42.662;23.402;2024-03-07T15:08:46;9.85;;;5.97;;
13028;SDS011;6581;42.662;23.402;2024-03-07T15:11:19;11.73;;;6.25;;
13028;SDS011;6581;42.662;23.402;2024-03-07T15:13:51;11.70;;;5.47;;
13028;SDS011;6581;42.662;23.402;2024-03-07T15:16:19;11.38;;;5.80;;
13028;SDS011;6581;42.662;23.402;2024-03-07T15:18:45;11.95;;;5.20;;
13028;SDS011;6581;42.662;23.402;2024-03-07T15:21:11;11.65;;;6.30;;
13028;SDS011;6581;42.662;23.402;2024-03-07T15:23:41;9.30;;;6.03;;
13028;SDS011;6581;42.662;23.402;2024-03-07T15:26:07;11.88;;;4.63;;
13028;SDS011;6581;42.662;23.402;2024-03-07T15:28:32;10.85;;;5.88;;
13028;SDS011;6581;42.662;23.402;2024-03-07T15:31:00;6.28;;;3.55;;